Time;durP1;ratioP1;P1;durP2;ratioP2;P2;SDS_P1;SDS_P2;PMS_P1;PMS_P2;Temp;Humidity;BMP_temperature;BMP_pressure;BME280_temperature;BME280_humidity;BME280_pressure;Samples;Min_cycle;Max_cycle;Signal;HPM_P1;HPM_P2
2021/04/06 00:00:53;;;;;;;12.00;5.88;;;;;;;-0.06;71.89;97373.09;4975599;28;20022;-74
2021/04/06 00:03:23;;;;;;;11.25;5.25;;;;;;;-0.10;71.81;97370.06;4982471;28;20031;-74
2021/04/06 00:05:51;;;;;;;9.13;3.83;;;;;;;-0.13;72.12;97386.75;4981942;28;20039;-74
2021/04/06 00:08:18;;;;;;;8.27;3.42;;;;;;;-0.14;71.92;97374.34;4984255;28;20588;-74
2021/04/06 00:10:51;;;;;;;7.80;3.42;;;;;;;-0.15;71.79;97380.78;4982457;28;20034;-73
2021/04/06 00:13:17;;;;;;;8.55;4.20;;;;;;;-0.17;72.17;97378.38;4985115;28;20026;-73
2021/04/06 00:15:45;;;;;;;5.50;2.78;;;;;;;-0.19;71.90;97380.50;4984603;28;20651;-74
2021/04/06 00:18:14;;;;;;;6.20;2.92;;;;;;;-0.19;71.94;97376.97;4978978;28;20109;-74
2021/04/06 00:20:41;;;;;;;7.43;3.67;;;;;;;-0.17;71.86;97374.84;4977372;28;20023;-73
2021/04/06 00:23:09;;;;;;;7.30;3.08;;;;;;;-0.17;71.67;97380.22;4985673;28;20034;-73
2021/04/06 00:25:38;;;;;;;7.10;3.17;;;;;;;-0.16;71.54;97381.88;4986447;28;20037;-74
2021/04/06 00:28:07;;;;;;;10.13;4.20;;;;;;;-0.18;71.85;97392.09;4987702;28;20038;-74
2021/04/06 00:30:34;;;;;;;7.95;3.42;;;;;;;-0.19;71.69;97398.53;4986028;28;20026;-73
2021/04/06 00:33:10;;;;;;;6.18;2.83;;;;;;;-0.22;71.60;97393.69;4986521;28;20291;-74
2021/04/06 00:35:37;;;;;;;5.53;2.78;;;;;;;-0.28;71.54;97390.09;4982132;28;20030;-74
2021/04/06 00:38:07;;;;;;;6.25;2.88;;;;;;;-0.27;71.72;97391.72;4980353;28;20091;-74
2021/04/06 00:40:36;;;;;;;6.17;2.90;;;;;;;-0.30;71.25;97384.13;4977986;28;20105;-74
2021/04/06 00:43:05;;;;;;;5.53;2.67;;;;;;;-0.34;71.64;97381.16;4963488;28;20274;-74
2021/04/06 00:45:35;;;;;;;5.77;2.97;;;;;;;-0.34;71.59;97396.47;4985405;28;20503;-74
2021/04/06 00:48:08;;;;;;;7.40;2.92;;;;;;;-0.32;71.83;97392.50;4986757;28;20040;-74
2021/04/06 00:50:36;;;;;;;7.68;3.20;;;;;;;-0.37;71.57;97389.72;4985989;28;20026;-74
2021/04/06 00:53:02;;;;;;;6.40;2.70;;;;;;;-0.33;71.43;97403.50;4985861;28;20081;-74
2021/04/06 00:55:37;;;;;;;6.65;3.15;;;;;;;-0.34;71.54;97404.56;4986907;28;20030;-74
2021/04/06 00:58:11;;;;;;;6.10;3.45;;;;;;;-0.35;71.07;97403.78;4967373;28;20548;-74
2021/04/06 01:00:37;;;;;;;6.93;3.35;;;;;;;-0.34;71.69;97404.56;4978220;28;20210;-74
2021/04/06 01:03:13;;;;;;;6.72;3.17;;;;;;;-0.33;71.66;97415.09;4978539;28;20065;-74
2021/04/06 01:06:01;;;;;;;7.30;3.10;;;;;;;-0.29;71.41;97420.00;5002657;28;20037;-74
2021/04/06 01:08:32;;;;;;;6.53;3.22;;;;;;;-0.32;72.06;97429.38;5012834;28;20042;-74
2021/04/06 01:10:59;;;;;;;5.68;2.83;;;;;;;-0.31;71.31;97433.69;4990988;28;20486;-74
2021/04/06 01:13:26;;;;;;;5.50;2.80;;;;;;;-0.31;71.17;97433.69;5017875;28;20570;-74
2021/04/06 01:15:52;;;;;;;5.13;2.85;;;;;;;-0.31;71.11;97433.69;5010916;28;20034;-74
2021/04/06 01:18:18;;;;;;;5.35;2.50;;;;;;;-0.30;71.24;97408.38;5021301;28;20508;-74
2021/04/06 01:20:44;;;;;;;5.10;2.70;;;;;;;-0.28;71.05;97402.75;5027697;28;20053;-74
2021/04/06 01:23:11;;;;;;;6.00;2.67;;;;;;;-0.20;71.22;97403.13;5026222;28;20069;-74
2021/04/06 01:25:43;;;;;;;5.30;3.00;;;;;;;-0.14;70.79;97397.78;5032412;28;20121;-74
2021/04/06 01:28:10;;;;;;;7.20;2.75;;;;;;;-0.13;70.97;97394.84;5023706;28;20428;-74
2021/04/06 01:30:45;;;;;;;5.80;2.75;;;;;;;-0.20;70.61;97396.91;5012673;28;20358;-74
2021/04/06 01:33:21;;;;;;;5.18;2.72;;;;;;;-0.24;70.36;97393.91;5009963;28;20079;-74
2021/04/06 01:35:48;;;;;;;6.15;2.80;;;;;;;-0.27;70.58;97404.41;5027338;28;20036;-74
2021/04/06 01:38:16;;;;;;;6.78;2.92;;;;;;;-0.35;70.63;97406.47;5017122;28;20045;-75
2021/04/06 01:40:43;;;;;;;6.03;2.70;;;;;;;-0.32;70.67;97405.13;4992890;28;20112;-74
2021/04/06 01:43:10;;;;;;;5.85;2.53;;;;;;;-0.33;70.67;97409.72;5009230;28;20040;-74
2021/04/06 01:45:43;;;;;;;5.82;2.60;;;;;;;-0.37;70.72;97405.91;5016953;28;20137;-75
2021/04/06 01:48:11;;;;;;;6.43;2.42;;;;;;;-0.41;70.44;97415.53;5014221;28;20095;-74
2021/04/06 01:50:37;;;;;;;5.50;2.47;;;;;;;-0.48;70.83;97429.22;5010425;28;20044;-74
2021/04/06 01:53:03;;;;;;;4.63;2.40;;;;;;;-0.48;70.76;97431.06;5016804;28;20022;-74
2021/04/06 01:55:34;;;;;;;3.78;2.50;;;;;;;-0.51;71.09;97412.72;5014068;28;20074;-74
2021/04/06 01:58:00;;;;;;;4.65;2.20;;;;;;;-0.49;70.73;97422.19;5012035;28;20034;-74
2021/04/06 02:00:35;;;;;;;4.80;2.50;;;;;;;-0.52;71.08;97406.53;5020411;28;20104;-75
2021/04/06 02:03:06;;;;;;;6.95;2.45;;;;;;;-0.59;70.70;97400.50;5009926;28;20057;-75
2021/04/06 02:05:32;;;;;;;5.13;2.45;;;;;;;-0.64;70.50;97401.25;5018213;28;20049;-76
2021/04/06 02:08:08;;;;;;;4.93;1.80;;;;;;;-0.67;70.63;97406.31;5011454;28;20036;-75
2021/04/06 02:10:34;;;;;;;6.35;2.53;;;;;;;-0.71;70.93;97406.00;5014391;28;20546;-75
2021/04/06 02:13:09;;;;;;;4.35;2.35;;;;;;;-0.81;70.98;97403.97;5009772;28;20112;-75
2021/04/06 02:15:35;;;;;;;4.68;2.28;;;;;;;-0.87;71.03;97410.38;5014041;28;20022;-75
2021/04/06 02:18:00;;;;;;;3.53;2.05;;;;;;;-0.93;71.29;97412.16;4998392;28;20378;-75
2021/04/06 02:20:26;;;;;;;5.25;1.98;;;;;;;-0.94;71.67;97409.72;5009840;28;20029;-75
2021/04/06 02:22:56;;;;;;;4.55;2.40;;;;;;;-0.93;71.39;97422.94;5023052;28;20026;-75
2021/04/06 02:25:21;;;;;;;2.95;2.13;;;;;;;-0.90;71.24;97416.25;5010713;28;20038;-75
2021/04/06 02:27:47;;;;;;;4.50;2.10;;;;;;;-0.88;71.14;97424.06;4993302;28;20040;-75
2021/04/06 02:30:13;;;;;;;5.95;2.63;;;;;;;-0.92;70.72;97421.88;5009894;28;20105;-75
2021/04/06 02:32:38;;;;;;;5.03;2.40;;;;;;;-0.89;70.97;97420.56;5015086;28;20071;-75
2021/04/06 02:35:09;;;;;;;4.78;2.10;;;;;;;-0.85;70.77;97423.56;5009645;28;20037;-75
2021/04/06 02:37:43;;;;;;;6.43;2.70;;;;;;;-0.90;70.97;97422.44;5015190;28;20034;-75
2021/04/06 02:40:14;;;;;;;5.90;2.40;;;;;;;-0.92;70.81;97426.47;5019471;28;20531;-75
2021/04/06 02:42:55;;;;;;;4.40;2.13;;;;;;;-0.97;70.84;97435.25;5011757;28;20029;-76
2021/04/06 02:45:27;;;;;;;7.80;2.40;;;;;;;-0.97;70.63;97437.16;5015689;28;20030;-75
2021/04/06 02:48:03;;;;;;;5.13;2.25;;;;;;;-0.95;70.57;97440.41;5012729;28;20033;-76
2021/04/06 02:50:28;;;;;;;5.28;2.55;;;;;;;-1.01;70.36;97439.50;5011071;28;20087;-75
2021/04/06 02:52:54;;;;;;;5.57;2.50;;;;;;;-1.00;70.55;97443.81;5020874;28;20065;-75
2021/04/06 02:55:24;;;;;;;5.20;2.40;;;;;;;-1.04;70.62;97445.41;5011203;28;20025;-75
2021/04/06 02:57:53;;;;;;;5.05;2.85;;;;;;;-1.03;70.59;97444.34;4999964;28;20370;-75
2021/04/06 03:00:27;;;;;;;5.22;2.40;;;;;;;-1.04;70.58;97450.78;5012518;28;20032;-75
2021/04/06 03:03:01;;;;;;;3.67;2.30;;;;;;;-1.10;70.77;97460.63;5012337;28;20022;-76
2021/04/06 03:05:29;;;;;;;4.93;2.60;;;;;;;-1.14;70.69;97453.31;5011824;28;20091;-75
2021/04/06 03:07:55;;;;;;;5.25;2.50;;;;;;;-1.18;70.88;97455.66;5012329;28;20034;-75
2021/04/06 03:10:21;;;;;;;7.32;2.58;;;;;;;-1.16;71.12;97460.81;5013348;28;20385;-76
2021/04/06 03:12:50;;;;;;;5.32;1.98;;;;;;;-1.19;71.14;97459.41;5038949;28;20038;-75
2021/04/06 03:15:24;;;;;;;5.38;2.13;;;;;;;-1.16;70.41;97442.78;5010724;28;20037;-75
2021/04/06 03:17:52;;;;;;;3.65;2.10;;;;;;;-1.12;71.02;97445.81;5015453;28;20026;-75
2021/04/06 03:20:19;;;;;;;6.15;2.33;;;;;;;-1.07;70.88;97443.19;4991124;28;20470;-75
2021/04/06 03:22:46;;;;;;;4.30;2.30;;;;;;;-1.03;70.81;97430.88;5007959;28;20394;-75
2021/04/06 03:25:13;;;;;;;5.13;2.22;;;;;;;-0.99;70.57;97439.25;5009846;28;20037;-75
2021/04/06 03:27:47;;;;;;;5.28;2.40;;;;;;;-0.95;70.68;97451.16;5038208;28;20377;-75
2021/04/06 03:30:15;;;;;;;4.43;2.15;;;;;;;-0.95;70.42;97456.56;5006216;28;20512;-75
2021/04/06 03:32:41;;;;;;;3.97;1.98;;;;;;;-0.93;70.38;97455.22;5009323;28;20711;-75
2021/04/06 03:35:08;;;;;;;4.30;2.15;;;;;;;-0.86;70.35;97444.31;5023957;28;20505;-75
2021/04/06 03:37:36;;;;;;;3.42;2.20;;;;;;;-0.81;70.33;97465.09;5019635;28;20022;-75
2021/04/06 03:40:03;;;;;;;3.55;2.97;;;;;;;-0.81;70.25;97470.47;4996006;28;20014;-75
2021/04/06 03:42:28;;;;;;;3.60;2.53;;;;;;;-0.78;69.87;97483.44;5008838;28;20439;-75
2021/04/06 03:45:08;;;;;;;7.95;2.65;;;;;;;-0.73;69.88;97474.63;5009939;28;20022;-75
2021/04/06 03:47:58;;;;;;;5.03;2.40;;;;;;;-0.68;69.92;97478.22;5010351;28;20029;-75
2021/04/06 03:50:37;;;;;;;6.78;2.78;;;;;;;-0.69;69.87;97478.47;5025250;28;20038;-75
2021/04/06 03:53:04;;;;;;;7.68;2.60;;;;;;;-0.75;69.70;97481.06;5017439;28;20034;-75
2021/04/06 03:55:31;;;;;;;5.10;2.63;;;;;;;-0.73;69.56;97486.22;5021903;28;20064;-75
2021/04/06 03:58:13;;;;;;;5.65;2.72;;;;;;;-0.68;69.45;97486.31;5018750;28;20022;-75
2021/04/06 04:00:40;;;;;;;5.63;3.53;;;;;;;-0.67;69.21;97487.09;5052138;28;20057;-75
2021/04/06 04:03:05;;;;;;;5.30;3.05;;;;;;;-0.70;69.02;97484.91;5025361;28;20041;-75
2021/04/06 04:05:31;;;;;;;7.38;2.90;;;;;;;-0.68;68.88;97491.69;5019431;28;20046;-74
2021/04/06 04:07:57;;;;;;;10.43;3.15;;;;;;;-0.66;68.61;97494.13;5012363;28;20030;-74
2021/04/06 04:10:22;;;;;;;8.98;3.15;;;;;;;-0.70;68.96;97482.22;5018082;28;20087;-74
2021/04/06 04:12:48;;;;;;;4.93;2.50;;;;;;;-0.72;68.96;97487.03;5024749;28;20374;-75
2021/04/06 04:15:14;;;;;;;9.30;4.45;;;;;;;-0.72;68.64;97489.72;5021677;28;20033;-75
2021/04/06 04:17:40;;;;;;;11.57;3.80;;;;;;;-0.73;68.76;97482.69;5025904;28;20028;-75
2021/04/06 04:20:12;;;;;;;13.40;4.28;;;;;;;-0.70;68.47;97484.91;5043343;28;20099;-73
2021/04/06 04:22:38;;;;;;;12.35;3.80;;;;;;;-0.59;68.88;97478.59;5012162;28;20026;-73
2021/04/06 04:25:05;;;;;;;11.65;3.75;;;;;;;-0.56;68.44;97485.38;5036715;28;20024;-77
2021/04/06 04:27:31;;;;;;;7.50;3.70;;;;;;;-0.56;68.17;97488.06;5030952;28;20030;-75
2021/04/06 04:29:56;;;;;;;10.27;3.85;;;;;;;-0.65;68.13;97491.19;5018794;28;20037;-75
2021/04/06 04:32:21;;;;;;;6.10;3.13;;;;;;;-0.62;68.51;97482.63;5041278;28;20045;-75
2021/04/06 04:34:47;;;;;;;7.68;2.63;;;;;;;-0.60;68.58;97491.25;5010600;28;20041;-75
2021/04/06 04:37:12;;;;;;;7.50;2.50;;;;;;;-0.59;68.03;97500.16;5016946;28;20538;-75
2021/04/06 04:39:38;;;;;;;7.45;3.47;;;;;;;-0.55;68.30;97505.84;5032589;28;20147;-75
2021/04/06 04:42:03;;;;;;;10.73;3.88;;;;;;;-0.61;67.77;97496.88;5046180;28;20471;-75
2021/04/06 04:44:29;;;;;;;11.95;7.35;;;;;;;-0.60;67.76;97514.69;5030898;28;20113;-75
2021/04/06 04:46:54;;;;;;;15.15;7.57;;;;;;;-0.60;67.75;97515.47;5013289;28;20026;-75
2021/04/06 04:49:19;;;;;;;14.02;5.88;;;;;;;-0.62;67.99;97525.72;5012547;28;20388;-75
2021/04/06 04:51:45;;;;;;;11.27;4.35;;;;;;;-0.69;67.64;97519.69;5012680;28;20057;-75
2021/04/06 04:54:10;;;;;;;14.35;5.13;;;;;;;-0.69;67.60;97529.63;5012660;28;20448;-75
2021/04/06 04:56:35;;;;;;;12.93;5.05;;;;;;;-0.69;67.58;97521.53;5012625;28;20030;-75
2021/04/06 04:59:01;;;;;;;22.02;7.68;;;;;;;-0.69;67.76;97522.38;5049393;28;20035;-75
2021/04/06 05:01:26;;;;;;;18.75;7.53;;;;;;;-0.68;67.42;97525.88;5067563;28;20038;-75
2021/04/06 05:03:51;;;;;;;14.90;5.80;;;;;;;-0.71;67.63;97521.81;5052324;28;20113;-75
2021/04/06 05:06:17;;;;;;;16.50;6.00;;;;;;;-0.78;67.16;97521.94;5012165;28;20653;-75
2021/04/06 05:08:43;;;;;;;20.08;6.43;;;;;;;-0.85;66.94;97526.72;5018373;28;20043;-75
2021/04/06 05:11:09;;;;;;;24.95;8.02;;;;;;;-0.91;67.25;97528.47;5025677;28;20034;-75
2021/04/06 05:13:34;;;;;;;33.35;8.88;;;;;;;-0.91;67.13;97531.19;4997067;28;20113;-75
2021/04/06 05:16:00;;;;;;;27.25;8.93;;;;;;;-0.89;67.35;97536.34;4986258;28;20052;-75
2021/04/06 05:18:25;;;;;;;23.08;8.65;;;;;;;-0.93;67.17;97527.91;4983958;28;20119;-74
2021/04/06 05:20:50;;;;;;;22.80;9.35;;;;;;;-0.88;67.22;97529.06;4984204;28;20111;-75
2021/04/06 05:23:16;;;;;;;22.65;9.13;;;;;;;-0.84;67.04;97527.50;4984675;28;20492;-75
2021/04/06 05:25:41;;;;;;;13.68;5.40;;;;;;;-0.81;67.11;97527.03;4984250;28;20026;-74
2021/04/06 05:28:07;;;;;;;14.60;6.30;;;;;;;-0.77;67.41;97528.16;4984406;28;20604;-75
2021/04/06 05:30:33;;;;;;;30.40;11.43;;;;;;;-0.77;66.97;97530.84;5003033;28;20034;-75
2021/04/06 05:32:58;;;;;;;20.23;9.52;;;;;;;-0.79;66.99;97524.91;4994640;28;20021;-75
2021/04/06 05:35:24;;;;;;;10.63;5.25;;;;;;;-0.77;66.58;97533.56;4972869;28;20339;-74
2021/04/06 05:37:49;;;;;;;8.32;4.03;;;;;;;-0.75;66.68;97534.13;4973474;28;20529;-75
2021/04/06 05:40:15;;;;;;;8.73;4.13;;;;;;;-0.76;66.30;97554.84;4968230;28;20159;-75
2021/04/06 05:42:40;;;;;;;12.07;5.35;;;;;;;-0.77;66.38;97542.44;4980387;28;20030;-74
2021/04/06 05:45:06;;;;;;;9.43;5.18;;;;;;;-0.71;66.71;97546.03;4983628;28;20030;-75
2021/04/06 05:47:41;;;;;;;23.85;7.82;;;;;;;-0.69;66.05;97543.09;4986002;28;20420;-75
2021/04/06 05:50:08;;;;;;;37.35;14.20;;;;;;;-0.67;66.26;97549.03;4984580;28;20482;-75
2021/04/06 05:52:34;;;;;;;59.80;28.98;;;;;;;-0.69;66.23;97549.31;4980779;28;20683;-75
2021/04/06 05:55:02;;;;;;;65.28;24.20;;;;;;;-0.70;66.49;97544.97;4974135;28;20778;-76
2021/04/06 05:57:28;;;;;;;72.90;26.50;;;;;;;-0.66;66.46;97542.59;4976681;28;20042;-75
2021/04/06 05:59:53;;;;;;;88.40;33.17;;;;;;;-0.62;66.23;97544.56;4984403;28;20042;-75
2021/04/06 06:02:19;;;;;;;54.90;25.25;;;;;;;-0.48;66.50;97546.91;4983825;28;20026;-75
2021/04/06 06:04:45;;;;;;;50.38;22.80;;;;;;;-0.48;66.11;97552.28;4984023;28;20046;-75
2021/04/06 06:07:12;;;;;;;44.58;23.23;;;;;;;-0.46;65.84;97551.00;4986012;28;20394;-77
2021/04/06 06:09:37;;;;;;;46.28;20.52;;;;;;;-0.39;65.82;97544.59;4984265;28;20107;-77
2021/04/06 06:12:04;;;;;;;31.20;13.02;;;;;;;-0.33;65.86;97541.75;4984700;28;20473;-75
2021/04/06 06:14:31;;;;;;;35.75;12.38;;;;;;;-0.21;66.09;97547.03;4978114;28;20488;-76
2021/04/06 06:16:57;;;;;;;29.92;10.27;;;;;;;-0.20;65.25;97555.91;4993206;28;20033;-75
2021/04/06 06:19:31;;;;;;;13.25;5.63;;;;;;;-0.17;65.17;97550.03;4987735;28;20039;-75
2021/04/06 06:21:56;;;;;;;25.13;9.88;;;;;;;-0.06;65.61;97556.38;4985568;28;20034;-81
2021/04/06 06:24:30;;;;;;;27.25;8.63;;;;;;;0.03;65.39;97556.75;4981866;28;20117;-73
2021/04/06 06:26:57;;;;;;;16.75;7.05;;;;;;;0.09;65.24;97561.16;5001428;28;20037;-73
2021/04/06 06:29:29;;;;;;;21.45;8.63;;;;;;;0.20;64.93;97554.84;4986243;28;20083;-73
2021/04/06 06:31:59;;;;;;;22.40;7.63;;;;;;;0.33;65.01;97560.91;4982833;28;20394;-73
2021/04/06 06:34:28;;;;;;;12.35;5.55;;;;;;;0.24;64.28;97555.13;4980744;28;20382;-75
2021/04/06 06:37:29;;;;;;;15.23;6.67;;;;;;;0.19;64.41;97547.81;4982040;28;20041;-76
2021/04/06 06:39:54;;;;;;;15.32;6.15;;;;;;;0.12;63.94;97560.66;4914201;29;20751;-75
2021/04/06 06:42:30;;;;;;;16.65;7.65;;;;;;;0.16;64.26;97555.56;4970979;28;20035;-76
2021/04/06 06:44:56;;;;;;;10.65;4.47;;;;;;;0.19;64.13;97568.56;4991032;28;20075;-74
2021/04/06 06:47:26;;;;;;;19.85;8.13;;;;;;;0.22;64.08;97558.06;4985972;28;20469;-75
2021/04/06 06:49:55;;;;;;;16.90;7.50;;;;;;;0.26;63.89;97548.41;5020346;28;20110;-75
2021/04/06 06:52:23;;;;;;;10.45;4.60;;;;;;;0.29;63.64;97549.81;5008711;28;20040;-76
2021/04/06 06:54:51;;;;;;;6.43;3.03;;;;;;;0.33;63.68;97556.34;4992090;28;20032;-75
2021/04/06 06:57:18;;;;;;;11.07;4.57;;;;;;;0.35;63.92;97539.88;4973810;28;20377;-76
2021/04/06 06:59:47;;;;;;;13.40;5.32;;;;;;;0.26;63.41;97534.13;5010356;28;20029;-74
2021/04/06 07:02:27;;;;;;;8.07;4.53;;;;;;;0.22;63.32;97533.78;5010339;28;20034;-73
2021/04/06 07:05:09;;;;;;;11.02;4.82;;;;;;;0.26;63.51;97553.81;5008470;28;20653;-74
2021/04/06 07:07:46;;;;;;;7.07;3.38;;;;;;;0.20;63.19;97549.44;5010051;28;20623;-73
2021/04/06 07:10:13;;;;;;;11.05;4.32;;;;;;;0.13;62.88;97546.91;5009192;28;20022;-73
2021/04/06 07:12:39;;;;;;;11.88;5.03;;;;;;;0.24;63.21;97553.25;5009780;28;20028;-74
2021/04/06 07:15:05;;;;;;;13.48;5.25;;;;;;;0.29;62.83;97556.00;5009713;28;20105;-73
2021/04/06 07:17:33;;;;;;;16.30;5.40;;;;;;;0.29;63.21;97558.69;5010260;28;20033;-75
2021/04/06 07:19:59;;;;;;;12.18;4.65;;;;;;;0.44;63.34;97558.06;5010414;28;20089;-76
2021/04/06 07:22:24;;;;;;;7.22;3.92;;;;;;;0.55;63.03;97563.56;5009371;28;20071;-75
2021/04/06 07:24:50;;;;;;;15.93;5.63;;;;;;;0.62;63.08;97557.97;5043724;28;20027;-75
2021/04/06 07:27:16;;;;;;;11.10;4.57;;;;;;;0.56;62.49;97549.00;5113091;28;20108;-76
2021/04/06 07:29:42;;;;;;;10.90;4.78;;;;;;;0.63;62.88;97551.50;5071513;28;20075;-76
2021/04/06 07:32:10;;;;;;;10.88;5.43;;;;;;;0.70;62.96;97558.34;5062047;28;20027;-75
2021/04/06 07:34:40;;;;;;;6.20;3.20;;;;;;;0.78;62.91;97553.56;5090310;28;20035;-77
2021/04/06 07:37:05;;;;;;;8.82;3.60;;;;;;;0.87;62.55;97555.56;4986835;28;20075;-76
2021/04/06 07:39:33;;;;;;;7.78;3.45;;;;;;;0.89;62.52;97555.28;5008568;28;20130;-76
2021/04/06 07:41:59;;;;;;;10.63;4.57;;;;;;;1.01;63.16;97555.16;5007957;28;20462;-76
2021/04/06 07:44:25;;;;;;;8.88;3.65;;;;;;;1.09;62.23;97543.84;5009571;28;20385;-76
2021/04/06 07:46:52;;;;;;;7.35;3.50;;;;;;;0.98;61.16;97552.94;5008410;28;20026;-75
2021/04/06 07:49:17;;;;;;;12.77;4.95;;;;;;;1.01;61.37;97547.03;5008787;28;20393;-75
2021/04/06 07:51:45;;;;;;;9.80;4.40;;;;;;;1.06;61.57;97536.25;5009482;28;20041;-75
2021/04/06 07:54:22;;;;;;;7.68;3.83;;;;;;;1.06;60.57;97535.47;5009247;28;20485;-76
2021/04/06 07:57:03;;;;;;;7.75;3.38;;;;;;;1.15;60.62;97518.53;5009382;28;20030;-75
2021/04/06 07:59:28;;;;;;;9.05;3.75;;;;;;;1.30;61.04;97527.81;5009468;28;20033;-73
2021/04/06 08:01:54;;;;;;;6.82;3.40;;;;;;;1.38;60.56;97521.94;5009666;28;20043;-75
2021/04/06 08:04:25;;;;;;;5.40;2.95;;;;;;;1.32;59.92;97534.59;5017360;28;20419;-74
2021/04/06 08:06:55;;;;;;;5.82;2.72;;;;;;;1.24;59.21;97536.94;5009091;28;20038;-74
2021/04/06 08:12:11;;;;;;;10.82;3.47;;;;;;;1.18;60.23;97530.72;5002384;28;20402;-75
2021/04/06 08:14:40;;;;;;;8.38;3.67;;;;;;;1.37;59.66;97530.28;5009317;28;20129;-74
2021/04/06 08:17:24;;;;;;;10.88;3.92;;;;;;;1.49;59.43;97541.75;5009248;28;20237;-75
2021/04/06 08:19:52;;;;;;;9.55;4.07;;;;;;;1.52;57.61;97543.09;5009350;28;20482;-75
2021/04/06 08:22:37;;;;;;;6.18;4.18;;;;;;;1.55;58.59;97532.59;5009429;28;20026;-74
2021/04/06 08:25:27;;;;;;;7.65;4.53;;;;;;;1.63;59.29;97534.78;5009346;28;20496;-73
2021/04/06 08:28:04;;;;;;;9.32;4.38;;;;;;;1.59;58.58;97527.47;5007632;28;20128;-73
2021/04/06 08:30:32;;;;;;;11.63;5.30;;;;;;;1.60;58.54;97537.22;5008217;28;20033;-74
2021/04/06 08:32:57;;;;;;;7.70;3.60;;;;;;;1.56;57.66;97530.69;5008373;28;20112;-74
2021/04/06 08:38:22;;;;;;;7.22;3.33;;;;;;;1.61;58.61;97531.56;5012715;28;20477;-73
2021/04/06 08:41:03;;;;;;;9.20;4.15;;;;;;;1.66;58.40;97535.34;5012716;28;20037;-73
2021/04/06 08:43:47;;;;;;;12.02;5.50;;;;;;;1.71;58.24;97549.72;5012397;28;20384;-72
2021/04/06 08:46:16;;;;;;;7.53;3.10;;;;;;;1.62;56.53;97532.34;5011148;28;20033;-75
2021/04/06 08:48:51;;;;;;;17.83;5.97;;;;;;;1.58;56.68;97540.19;5011142;28;20026;-75
2021/04/06 08:51:23;;;;;;;9.20;4.10;;;;;;;1.57;57.25;97540.44;5012438;28;20030;-75
2021/04/06 08:53:51;;;;;;;8.40;4.45;;;;;;;1.47;57.06;97531.16;5012412;28;20485;-78
2021/04/06 08:56:19;;;;;;;14.38;6.10;;;;;;;1.55;57.58;97526.34;5010894;28;20118;-77
2021/04/06 08:58:45;;;;;;;15.52;7.00;;;;;;;1.59;57.77;97517.50;5012018;28;20037;-75
2021/04/06 09:01:10;;;;;;;12.82;4.20;;;;;;;1.66;57.82;97533.47;5011971;28;20034;-75
2021/04/06 09:03:36;;;;;;;22.98;7.68;;;;;;;1.70;56.94;97539.16;5011689;28;20029;-75
2021/04/06 09:06:06;;;;;;;19.77;6.18;;;;;;;1.83;57.39;97532.50;5010534;28;20129;-75
2021/04/06 09:08:50;;;;;;;;;;;;;;;1.92;56.98;97528.19;5012390;28;20034;-75
2021/04/06 09:11:20;;;;;;;11.45;5.03;;;;;;;2.01;56.46;97520.41;5011913;28;20365;-75
2021/04/06 09:13:48;;;;;;;;;;;;;;;2.15;56.48;97512.63;5012356;28;20033;-75
2021/04/06 09:16:14;;;;;;;6.93;3.55;;;;;;;2.21;56.43;97509.66;5011730;28;20364;-75
2021/04/06 09:18:40;;;;;;;7.95;3.40;;;;;;;2.30;56.34;97517.28;5010557;28;20030;-76
2021/04/06 09:21:07;;;;;;;5.82;3.17;;;;;;;2.33;55.62;97517.53;4993834;28;20026;-74
2021/04/06 09:23:35;;;;;;;8.13;3.70;;;;;;;2.29;55.27;97513.75;5006559;28;20034;-72
2021/04/06 09:26:11;;;;;;;7.47;3.45;;;;;;;2.26;53.55;97521.59;5011272;28;20045;-74
2021/04/06 09:28:37;;;;;;;5.97;3.53;;;;;;;2.17;53.54;97521.28;5011303;28;20061;-73
2021/04/06 09:31:07;;;;;;;11.50;4.35;;;;;;;2.06;54.00;97520.41;5009580;28;20109;-73
2021/04/06 09:33:32;;;;;;;12.52;5.82;;;;;;;2.03;54.23;97527.19;5008995;28;20032;-76
2021/04/06 09:35:57;;;;;;;7.95;3.70;;;;;;;2.07;54.86;97522.88;5021351;28;20030;-73
2021/04/06 09:38:24;;;;;;;9.40;4.38;;;;;;;2.23;55.36;97526.44;5010880;28;20037;-73
2021/04/06 09:40:51;;;;;;;8.20;3.97;;;;;;;2.39;55.33;97523.81;5011266;28;20064;-73
2021/04/06 09:43:17;;;;;;;7.82;3.70;;;;;;;2.44;54.80;97533.81;4993579;28;20022;-73
2021/04/06 09:45:43;;;;;;;6.30;3.20;;;;;;;2.43;54.31;97530.31;5009197;28;20057;-72
2021/04/06 09:48:13;;;;;;;7.32;3.13;;;;;;;2.50;55.38;97528.16;5009562;28;20026;-73
2021/04/06 09:50:40;;;;;;;8.73;4.32;;;;;;;2.74;55.24;97534.97;5010576;28;20048;-74
2021/04/06 09:53:18;;;;;;;7.47;3.22;;;;;;;2.91;55.54;97534.72;5010706;28;20033;-74
2021/04/06 09:55:47;;;;;;;401.92;154.93;;;;;;;2.92;54.64;97542.59;5011327;28;20485;-75
2021/04/06 09:58:13;;;;;;;15.93;11.85;;;;;;;2.90;53.94;97535.81;5011308;28;20025;-75
2021/04/06 10:00:38;;;;;;;18.10;11.18;;;;;;;2.96;53.61;97532.03;5011232;28;20026;-75
2021/04/06 10:03:35;;;;;;;12.90;6.68;;;;;;;2.89;52.17;97535.00;4993600;28;20113;-75
2021/04/06 10:06:05;;;;;;;14.85;7.07;;;;;;;2.76;51.70;97535.50;5010799;28;20058;-75
2021/04/06 10:08:32;;;;;;;10.02;5.10;;;;;;;2.64;50.69;97535.78;5010913;28;20059;-75
2021/04/06 10:10:58;;;;;;;10.68;4.78;;;;;;;2.47;51.13;97539.50;5011048;28;20033;-74
2021/04/06 10:13:24;;;;;;;12.02;6.10;;;;;;;2.50;51.68;97538.16;5011074;28;20014;-75
2021/04/06 10:15:49;;;;;;;8.95;3.15;;;;;;;2.62;52.09;97532.50;5011004;28;20381;-74
2021/04/06 10:18:16;;;;;;;5.88;2.90;;;;;;;2.81;52.31;97525.53;5011125;28;20109;-74
2021/04/06 10:20:50;;;;;;;12.02;5.60;;;;;;;3.07;53.30;97522.00;5011166;28;20465;-75
2021/04/06 10:23:33;;;;;;;11.07;3.88;;;;;;;3.24;51.64;97519.84;5011019;28;20099;-75
2021/04/06 10:25:59;;;;;;;12.82;4.05;;;;;;;3.20;51.54;97510.63;5010844;28;20029;-75
2021/04/06 10:28:27;;;;;;;10.55;3.60;;;;;;;3.16;50.85;97508.75;4993330;28;20029;-74
2021/04/06 10:30:58;;;;;;;6.82;3.80;;;;;;;2.96;50.29;97503.06;5010892;28;20021;-75
2021/04/06 10:33:36;;;;;;;9.32;3.85;;;;;;;2.83;50.62;97507.13;5010763;28;20427;-75
2021/04/06 10:36:08;;;;;;;8.25;3.58;;;;;;;2.77;51.69;97504.66;5010689;28;20022;-74
2021/04/06 10:38:39;;;;;;;7.68;3.42;;;;;;;2.72;51.29;97507.34;5010963;28;20018;-75
2021/04/06 10:41:16;;;;;;;8.05;4.03;;;;;;;2.78;51.71;97503.56;5010619;28;20071;-75
2021/04/06 10:43:48;;;;;;;7.20;3.85;;;;;;;3.09;52.36;97504.41;5010486;28;20029;-74
2021/04/06 10:46:24;;;;;;;5.28;3.10;;;;;;;3.34;51.16;97497.34;5010498;28;20037;-75
2021/04/06 10:49:05;;;;;;;5.22;2.95;;;;;;;3.32;51.49;97488.66;5010477;28;20075;-75
2021/04/06 10:51:32;;;;;;;10.02;4.05;;;;;;;3.37;51.06;97488.66;5010440;28;20704;-74
2021/04/06 10:54:01;;;;;;;8.05;4.00;;;;;;;3.41;51.19;97491.66;5010271;28;20026;-75
2021/04/06 10:56:38;;;;;;;12.23;4.57;;;;;;;3.31;50.19;97492.47;5010129;28;20026;-74
2021/04/06 10:59:09;;;;;;;8.25;4.00;;;;;;;3.24;50.94;97484.63;5010247;28;20026;-75
2021/04/06 11:01:39;;;;;;;6.93;3.80;;;;;;;3.30;50.30;97490.03;4992799;28;20525;-75
2021/04/06 11:04:10;;;;;;;15.05;7.72;;;;;;;3.31;50.77;97484.34;5010233;28;20536;-75
2021/04/06 11:06:38;;;;;;;4.07;2.38;;;;;;;3.23;49.72;97488.41;5010233;28;20080;-75
2021/04/06 11:09:21;;;;;;;9.32;4.75;;;;;;;3.13;49.09;97481.13;4992710;28;20067;-75
2021/04/06 11:11:49;;;;;;;10.15;5.13;;;;;;;3.33;49.97;97484.88;5010049;28;20029;-75
2021/04/06 11:14:17;;;;;;;6.30;3.00;;;;;;;3.57;50.29;97484.31;5008982;28;20060;-75
2021/04/06 11:16:44;;;;;;;6.38;3.35;;;;;;;3.64;49.62;97476.72;5008792;28;20025;-75
2021/04/06 11:19:29;;;;;;;11.13;5.20;;;;;;;3.81;49.80;97480.97;5010250;28;20059;-76
2021/04/06 11:21:57;;;;;;;9.63;3.75;;;;;;;3.72;49.17;97472.59;5010032;28;20056;-75
2021/04/06 11:24:30;;;;;;;4.57;2.80;;;;;;;3.74;49.58;97473.16;5009932;28;20038;-75
2021/04/06 11:26:56;;;;;;;11.35;4.60;;;;;;;3.63;47.62;97476.97;5010011;28;20026;-75
2021/04/06 11:29:24;;;;;;;16.65;5.90;;;;;;;3.43;47.14;97467.81;5008625;28;20113;-75
2021/04/06 11:31:52;;;;;;;19.45;7.07;;;;;;;3.43;48.51;97462.38;5009710;28;20055;-75
2021/04/06 11:34:17;;;;;;;4.72;2.70;;;;;;;3.54;47.28;97457.75;5009937;28;20030;-75
2021/04/06 11:36:45;;;;;;;21.10;5.97;;;;;;;3.54;47.64;97452.31;5009688;28;20030;-75
2021/04/06 11:39:13;;;;;;;5.30;2.72;;;;;;;3.56;48.01;97456.38;5009770;28;20022;-75
2021/04/06 11:41:39;;;;;;;8.00;3.28;;;;;;;3.69;48.04;97454.19;5009759;28;20105;-75
2021/04/06 11:44:05;;;;;;;5.72;2.80;;;;;;;3.96;48.66;97451.09;5008922;28;20029;-75
2021/04/06 11:46:35;;;;;;;9.13;4.30;;;;;;;4.25;47.76;97458.56;5009664;28;20038;-76
2021/04/06 11:49:00;;;;;;;;;;;;;;;4.56;49.60;97444.00;5010348;28;20481;-76